createdAt,value
2018-07-15T00:01:46.015Z,9.27
2018-07-15T00:04:14.587Z,10.90
2018-07-15T00:06:43.156Z,9.77
2018-07-15T00:09:11.711Z,10.20
2018-07-15T00:11:40.298Z,9.13
2018-07-15T00:14:08.848Z,9.63
2018-07-15T00:16:37.398Z,9.63
2018-07-15T00:19:05.983Z,9.93
2018-07-15T00:21:34.556Z,9.73
2018-07-15T00:24:03.117Z,9.73
2018-07-15T00:26:31.644Z,9.10
2018-07-15T00:29:00.180Z,8.50
2018-07-15T00:31:28.736Z,8.93
2018-07-15T00:33:57.316Z,8.20
2018-07-15T00:36:25.928Z,7.93
2018-07-15T00:38:54.439Z,8.27
2018-07-15T00:41:23.663Z,7.57
2018-07-15T00:43:52.666Z,8.17
2018-07-15T00:46:21.697Z,7.80
2018-07-15T00:48:50.958Z,8.17
2018-07-15T00:51:20.183Z,8.33
2018-07-15T00:53:48.785Z,8.00
2018-07-15T00:56:17.292Z,8.17
2018-07-15T00:58:45.823Z,7.30
2018-07-15T01:01:14.409Z,8.80
2018-07-15T01:03:43.812Z,8.53
2018-07-15T01:06:12.988Z,8.17
2018-07-15T01:08:42.228Z,7.93
2018-07-15T01:11:10.747Z,8.33
2018-07-15T01:13:39.262Z,8.77
2018-07-15T01:16:07.807Z,7.80
2018-07-15T01:18:36.408Z,8.77
2018-07-15T01:21:05.033Z,8.73
2018-07-15T01:23:33.589Z,8.17
2018-07-15T01:26:02.435Z,8.80
2018-07-15T01:28:30.989Z,9.00
2018-07-15T01:31:00.137Z,9.87
2018-07-15T01:33:29.356Z,8.63
2018-07-15T01:35:58.015Z,8.23
2018-07-15T01:38:26.549Z,8.70
2018-07-15T01:40:55.111Z,8.77
2018-07-15T01:43:23.669Z,8.97
2018-07-15T01:45:52.192Z,9.53
2018-07-15T01:48:20.718Z,9.70
2018-07-15T01:50:49.244Z,9.60
2018-07-15T01:53:17.783Z,9.67
2018-07-15T01:55:46.290Z,10.00
2018-07-15T01:58:14.824Z,10.87
2018-07-15T02:00:43.351Z,11.47
2018-07-15T02:03:11.927Z,10.30
2018-07-15T02:05:40.565Z,9.63
2018-07-15T02:08:09.151Z,9.53
2018-07-15T02:10:37.669Z,9.60
2018-07-15T02:13:06.263Z,10.70
2018-07-15T02:15:34.803Z,10.17
2018-07-15T02:18:03.374Z,10.03
2018-07-15T02:20:31.987Z,10.20
2018-07-15T02:23:00.533Z,10.43
2018-07-15T02:25:29.069Z,9.83
2018-07-15T02:27:57.579Z,10.40
2018-07-15T02:30:26.121Z,10.03
2018-07-15T02:32:54.650Z,9.80
2018-07-15T02:35:23.212Z,10.20
2018-07-15T02:37:51.724Z,10.00
2018-07-15T02:40:20.372Z,10.63
2018-07-15T02:42:48.903Z,10.03
2018-07-15T02:45:17.435Z,9.27
2018-07-15T02:47:45.956Z,9.27
2018-07-15T02:50:14.471Z,10.80
2018-07-15T02:52:42.996Z,10.73
2018-07-15T02:55:11.531Z,10.07
2018-07-15T02:57:40.041Z,9.93
2018-07-15T03:00:08.989Z,9.60
2018-07-15T03:02:37.500Z,9.80
2018-07-15T03:05:06.271Z,10.07
2018-07-15T03:07:34.915Z,9.50
2018-07-15T03:10:03.550Z,8.80
2018-07-15T03:12:32.110Z,9.13
2018-07-15T03:15:00.611Z,8.77
2018-07-15T03:17:29.218Z,8.50
2018-07-15T03:19:57.702Z,7.83
2018-07-15T03:22:26.208Z,8.23
2018-07-15T03:24:54.732Z,8.73
2018-07-15T03:27:23.273Z,7.63
2018-07-15T03:29:51.775Z,8.17
2018-07-15T03:32:20.276Z,8.13
2018-07-15T03:34:48.813Z,8.17
2018-07-15T03:37:17.340Z,8.67
2018-07-15T03:39:45.931Z,8.50
2018-07-15T03:42:15.094Z,9.40
2018-07-15T03:44:43.965Z,9.33
2018-07-15T03:47:12.488Z,9.30
2018-07-15T03:49:40.991Z,9.33
2018-07-15T03:52:09.530Z,10.27
2018-07-15T03:54:38.057Z,10.03
2018-07-15T03:57:06.571Z,12.80
2018-07-15T03:59:35.091Z,12.43
2018-07-15T04:02:03.684Z,13.83
2018-07-15T04:04:32.344Z,12.80
2018-07-15T04:07:00.874Z,12.53
2018-07-15T04:09:29.838Z,12.13
2018-07-15T04:11:58.360Z,11.53
2018-07-15T04:14:26.896Z,11.07
2018-07-15T04:16:55.579Z,10.00
2018-07-15T04:19:24.097Z,8.50
2018-07-15T04:21:53.216Z,10.57
2018-07-15T04:24:21.748Z,9.23
2018-07-15T04:26:50.389Z,9.30
2018-07-15T04:29:18.911Z,9.13
2018-07-15T04:31:47.392Z,8.30
2018-07-15T04:34:15.907Z,8.60
2018-07-15T04:36:44.402Z,8.47
2018-07-15T04:39:12.972Z,7.33
2018-07-15T04:41:41.451Z,8.23
2018-07-15T04:44:09.982Z,8.30
2018-07-15T04:46:38.539Z,8.17
2018-07-15T04:49:07.483Z,8.23
2018-07-15T04:51:36.011Z,8.00
2018-07-15T04:54:04.536Z,7.80
2018-07-15T04:56:33.056Z,6.63
2018-07-15T04:59:01.526Z,6.77
2018-07-15T05:01:30.044Z,7.73
2018-07-15T05:03:58.554Z,7.43
2018-07-15T05:06:27.063Z,6.90
2018-07-15T05:08:55.594Z,7.80
2018-07-15T05:11:24.305Z,8.03
2018-07-15T05:13:52.803Z,7.53
2018-07-15T05:16:21.324Z,7.50
2018-07-15T05:18:50.307Z,8.00
2018-07-15T05:21:19.721Z,7.13
2018-07-15T05:23:48.236Z,7.53
2018-07-15T05:26:16.740Z,8.13
2018-07-15T05:28:45.246Z,7.87
2018-07-15T05:31:13.775Z,7.47
2018-07-15T05:33:42.288Z,7.60
2018-07-15T05:36:10.800Z,7.80
2018-07-15T05:38:39.372Z,8.30
2018-07-15T05:41:08.000Z,7.67
2018-07-15T05:43:36.493Z,7.43
2018-07-15T05:46:05.089Z,8.40
2018-07-15T05:48:33.623Z,7.37
2018-07-15T05:51:02.156Z,8.53
2018-07-15T05:53:30.716Z,7.93
2018-07-15T05:55:59.262Z,7.57
2018-07-15T05:58:27.772Z,8.33
2018-07-15T06:00:56.260Z,8.33
2018-07-15T06:03:24.842Z,8.77
2018-07-15T06:05:53.436Z,8.83
2018-07-15T06:08:22.020Z,8.93
2018-07-15T06:10:50.644Z,8.63
2018-07-15T06:13:19.278Z,8.30
2018-07-15T06:15:47.812Z,8.53
2018-07-15T06:18:16.269Z,7.93
2018-07-15T06:20:44.793Z,8.50
2018-07-15T06:23:13.351Z,8.57
2018-07-15T06:25:42.340Z,8.67
2018-07-15T06:28:11.315Z,9.30
2018-07-15T06:30:40.676Z,9.60
2018-07-15T06:33:09.814Z,9.60
2018-07-15T06:35:39.045Z,10.63
2018-07-15T06:38:08.649Z,8.77
2018-07-15T06:40:37.900Z,8.37
2018-07-15T06:43:06.691Z,7.60
2018-07-15T06:45:35.660Z,8.13
2018-07-15T06:48:04.172Z,9.87
2018-07-15T06:50:32.709Z,9.03
2018-07-15T06:53:01.239Z,10.20
2018-07-15T06:55:29.796Z,10.90
2018-07-15T06:57:58.374Z,12.33
2018-07-15T07:00:26.898Z,11.43
2018-07-15T07:02:55.436Z,12.50
2018-07-15T07:05:24.001Z,12.50
2018-07-15T07:07:52.859Z,12.43
2018-07-15T07:10:21.443Z,10.53
2018-07-15T07:12:49.984Z,12.20
2018-07-15T07:15:18.657Z,10.67
2018-07-15T07:17:47.371Z,10.40
2018-07-15T07:20:16.001Z,11.83
2018-07-15T07:22:44.468Z,11.57
2018-07-15T07:25:12.983Z,11.43
2018-07-15T07:27:41.500Z,11.90
2018-07-15T07:30:10.102Z,10.70
2018-07-15T07:32:38.924Z,10.97
2018-07-15T07:35:07.880Z,10.40
2018-07-15T07:37:36.415Z,11.20
2018-07-15T07:40:05.318Z,9.57
2018-07-15T07:42:33.845Z,10.60
2018-07-15T07:45:02.388Z,9.60
2018-07-15T07:47:30.907Z,9.80
2018-07-15T07:49:59.423Z,9.97
2018-07-15T07:52:27.948Z,10.67
2018-07-15T07:54:56.480Z,10.03
2018-07-15T07:57:24.986Z,9.40
2018-07-15T07:59:53.536Z,9.37
2018-07-15T08:02:22.890Z,9.53
2018-07-15T08:04:51.363Z,10.23
2018-07-15T08:07:19.894Z,9.20
2018-07-15T08:09:48.407Z,8.63
2018-07-15T08:12:16.867Z,8.80
2018-07-15T08:14:45.405Z,8.67
2018-07-15T08:17:14.028Z,8.73
2018-07-15T08:19:42.566Z,8.77
2018-07-15T08:22:11.100Z,8.77
2018-07-15T08:24:39.618Z,8.60
2018-07-15T08:27:08.169Z,8.20
2018-07-15T08:29:41.085Z,9.13
2018-07-15T08:32:09.657Z,8.30
2018-07-15T08:34:38.685Z,8.07
2018-07-15T08:37:07.207Z,7.80
2018-07-15T08:39:35.718Z,7.70
2018-07-15T08:42:04.722Z,7.50
2018-07-15T08:44:33.188Z,8.33
2018-07-15T08:47:01.697Z,7.90
2018-07-15T08:49:30.256Z,7.33
2018-07-15T08:51:58.781Z,7.40
2018-07-15T08:54:27.254Z,7.30
2018-07-15T08:56:55.779Z,6.93
2018-07-15T08:59:24.373Z,7.23
2018-07-15T09:01:52.880Z,6.40
2018-07-15T09:04:21.402Z,7.57
2018-07-15T09:06:49.944Z,6.67
2018-07-15T09:09:18.676Z,7.20
2018-07-15T09:11:47.195Z,7.20
2018-07-15T09:14:15.712Z,7.07
2018-07-15T09:16:44.240Z,7.27
2018-07-15T09:19:12.885Z,6.50
2018-07-15T09:21:41.365Z,6.97
2018-07-15T09:24:09.879Z,6.30
2018-07-15T09:26:38.394Z,6.63
2018-07-15T09:29:06.909Z,5.87
2018-07-15T09:31:35.470Z,5.57
2018-07-15T09:34:04.056Z,5.87
2018-07-15T09:36:32.743Z,5.70
2018-07-15T09:39:01.288Z,5.53
2018-07-15T09:41:29.874Z,5.70
2018-07-15T09:43:58.414Z,5.40
2018-07-15T09:46:26.879Z,5.57
2018-07-15T09:48:55.968Z,5.20
2018-07-15T09:51:24.589Z,4.43
2018-07-15T09:53:53.243Z,4.70
2018-07-15T09:56:21.748Z,4.60
2018-07-15T09:58:50.405Z,5.30
2018-07-15T10:01:18.917Z,5.00
2018-07-15T10:03:47.424Z,5.10
2018-07-15T10:06:15.992Z,4.50
2018-07-15T10:08:44.451Z,4.90
2018-07-15T10:11:13.347Z,4.57
2018-07-15T10:13:41.899Z,4.80
2018-07-15T10:16:10.417Z,5.93
2018-07-15T10:18:38.880Z,4.37
2018-07-15T10:21:07.522Z,4.40
2018-07-15T10:23:36.041Z,4.83
2018-07-15T10:26:04.584Z,4.67
2018-07-15T10:28:33.045Z,5.03
2018-07-15T10:31:01.501Z,5.10
2018-07-15T10:33:29.960Z,4.87
2018-07-15T10:35:58.508Z,7.13
2018-07-15T10:38:27.018Z,4.67
2018-07-15T10:40:55.595Z,4.57
2018-07-15T10:43:24.625Z,5.10
2018-07-15T10:45:53.089Z,4.93
2018-07-15T10:48:21.599Z,4.87
2018-07-15T10:50:50.128Z,4.97
2018-07-15T10:53:18.636Z,4.77
2018-07-15T10:55:47.171Z,4.93
2018-07-15T10:58:15.944Z,4.73
2018-07-15T11:00:44.467Z,4.73
2018-07-15T11:03:12.966Z,4.80
2018-07-15T11:05:41.485Z,4.90
2018-07-15T11:08:10.020Z,4.67
2018-07-15T11:10:38.503Z,4.87
2018-07-15T11:13:07.018Z,4.83
2018-07-15T11:15:35.596Z,4.93
2018-07-15T11:18:04.128Z,4.50
2018-07-15T11:20:32.648Z,4.80
2018-07-15T11:23:01.296Z,4.80
2018-07-15T11:25:29.794Z,5.00
2018-07-15T11:27:58.375Z,4.67
2018-07-15T11:30:26.897Z,4.53
2018-07-15T11:32:55.422Z,5.60
2018-07-15T11:35:23.946Z,5.17
2018-07-15T11:37:52.399Z,4.83
2018-07-15T11:40:21.277Z,5.10
2018-07-15T11:42:49.812Z,4.57
2018-07-15T11:45:18.507Z,5.07
2018-07-15T11:47:47.091Z,5.00
2018-07-15T11:50:15.612Z,4.67
2018-07-15T11:52:45.174Z,5.20
2018-07-15T11:55:13.707Z,5.17
2018-07-15T11:57:42.203Z,4.30
2018-07-15T12:00:10.916Z,4.30
2018-07-15T12:02:39.680Z,4.73
2018-07-15T12:05:08.801Z,4.57
2018-07-15T12:07:37.340Z,4.10
2018-07-15T12:10:06.184Z,4.40
2018-07-15T12:12:34.927Z,4.50
2018-07-15T12:15:03.476Z,4.73
2018-07-15T12:17:32.283Z,4.10
2018-07-15T12:20:00.866Z,4.53
2018-07-15T12:22:29.462Z,4.30
2018-07-15T12:24:57.993Z,4.70
2018-07-15T12:27:26.667Z,4.33
2018-07-15T12:29:55.184Z,4.27
2018-07-15T12:32:23.685Z,4.40
2018-07-15T12:34:52.260Z,4.30
2018-07-15T12:37:20.781Z,4.30
2018-07-15T12:39:49.254Z,4.67
2018-07-15T12:42:17.720Z,4.57
2018-07-15T12:44:46.283Z,4.50
2018-07-15T12:47:14.829Z,4.23
2018-07-15T12:49:43.353Z,4.13
2018-07-15T12:52:12.021Z,4.43
2018-07-15T12:54:40.586Z,4.37
2018-07-15T12:57:09.153Z,4.10
2018-07-15T12:59:37.685Z,4.77
2018-07-15T13:02:06.203Z,4.40
2018-07-15T13:04:34.691Z,4.83
2018-07-15T13:07:03.202Z,4.47
2018-07-15T13:09:31.672Z,4.70
2018-07-15T13:12:00.224Z,4.63
2018-07-15T13:14:28.752Z,4.70
2018-07-15T13:16:57.299Z,4.83
2018-07-15T13:19:25.811Z,4.70
2018-07-15T13:21:54.283Z,4.50
2018-07-15T13:24:22.841Z,4.53
2018-07-15T13:26:51.435Z,4.43
2018-07-15T13:29:19.956Z,4.97
2018-07-15T13:31:48.477Z,4.20
2018-07-15T13:34:16.953Z,4.37
2018-07-15T13:36:45.481Z,4.43
2018-07-15T13:39:13.999Z,4.47
2018-07-15T13:41:42.468Z,4.20
2018-07-15T13:44:11.000Z,4.20
2018-07-15T13:46:39.525Z,4.40
2018-07-15T13:49:07.560Z,4.33
2018-07-15T13:51:36.027Z,4.30
2018-07-15T13:54:04.575Z,4.40
2018-07-15T13:56:33.172Z,4.47
2018-07-15T13:59:01.741Z,4.27
2018-07-15T14:01:30.320Z,4.53
2018-07-15T14:03:58.845Z,4.80
2018-07-15T14:06:27.325Z,4.80
2018-07-15T14:08:55.850Z,4.47
2018-07-15T14:11:24.397Z,4.33
2018-07-15T14:13:52.852Z,4.47
2018-07-15T14:16:21.360Z,4.27
2018-07-15T14:18:49.829Z,4.43
2018-07-15T14:21:18.356Z,4.70
2018-07-15T14:23:46.817Z,5.03
2018-07-15T14:26:15.359Z,5.37
2018-07-15T14:28:44.252Z,5.20
2018-07-15T14:31:12.757Z,5.63
2018-07-15T14:33:41.240Z,5.20
2018-07-15T14:36:09.726Z,6.63
2018-07-15T14:38:38.219Z,9.17
2018-07-15T14:41:06.840Z,9.63
2018-07-15T14:43:35.335Z,6.80
2018-07-15T14:46:03.919Z,5.90
2018-07-15T14:48:32.413Z,6.57
2018-07-15T14:51:00.909Z,7.03
2018-07-15T14:53:29.469Z,6.67
2018-07-15T14:55:58.060Z,6.90
2018-07-15T14:58:26.580Z,7.40
2018-07-15T15:00:55.111Z,7.60
2018-07-15T15:03:23.610Z,7.47
2018-07-15T15:05:52.095Z,7.03
2018-07-15T15:08:20.589Z,7.40
2018-07-15T15:10:49.060Z,6.23
2018-07-15T15:13:17.609Z,6.80
2018-07-15T15:15:46.067Z,6.20
2018-07-15T15:18:14.529Z,5.43
2018-07-15T15:20:42.999Z,5.47
2018-07-15T15:23:11.462Z,4.43
2018-07-15T15:25:39.965Z,4.07
2018-07-15T15:28:08.515Z,3.90
2018-07-15T15:30:36.991Z,4.23
2018-07-15T15:33:05.525Z,4.43
2018-07-15T15:35:34.016Z,4.60
2018-07-15T15:38:02.487Z,4.67
2018-07-15T15:40:30.966Z,4.60
2018-07-15T15:42:59.433Z,4.97
2018-07-15T15:45:27.902Z,4.70
2018-07-15T15:47:56.392Z,4.30
2018-07-15T15:50:24.860Z,5.00
2018-07-15T15:52:53.562Z,4.90
2018-07-15T15:55:22.094Z,5.00
2018-07-15T15:57:50.586Z,4.40
2018-07-15T16:00:19.215Z,7.43
2018-07-15T16:02:47.724Z,6.63
2018-07-15T16:05:16.315Z,6.40
2018-07-15T16:07:44.771Z,4.80
2018-07-15T16:10:13.255Z,4.53
2018-07-15T16:12:41.775Z,6.03
2018-07-15T16:15:10.304Z,5.73
2018-07-15T16:17:38.797Z,5.23
2018-07-15T16:20:07.788Z,4.33
2018-07-15T16:22:36.316Z,4.00
2018-07-15T16:25:05.003Z,4.27
2018-07-15T16:27:33.531Z,4.23
2018-07-15T16:30:02.021Z,5.17
2018-07-15T16:32:30.600Z,5.10
2018-07-15T16:34:59.062Z,4.50
2018-07-15T16:37:27.599Z,5.00
2018-07-15T16:39:56.091Z,4.87
2018-07-15T16:42:24.617Z,5.10
2018-07-15T16:44:53.096Z,5.27
2018-07-15T16:47:21.619Z,4.90
2018-07-15T16:49:50.135Z,4.90
2018-07-15T16:52:18.593Z,4.57
2018-07-15T16:54:47.129Z,4.10
2018-07-15T16:57:15.600Z,4.83
2018-07-15T16:59:44.056Z,4.90
2018-07-15T17:02:12.545Z,4.77
2018-07-15T17:04:41.135Z,5.00
2018-07-15T17:07:09.611Z,5.13
2018-07-15T17:09:38.486Z,5.20
2018-07-15T17:12:07.036Z,4.97
2018-07-15T17:14:35.888Z,5.00
2018-07-15T17:17:04.529Z,4.70
2018-07-15T17:19:32.995Z,5.33
2018-07-15T17:22:01.541Z,4.60
2018-07-15T17:24:29.990Z,5.00
2018-07-15T17:26:58.469Z,6.27
2018-07-15T17:29:26.923Z,5.30
2018-07-15T17:31:55.425Z,5.30
2018-07-15T17:34:23.912Z,8.03
2018-07-15T17:36:52.664Z,6.67
2018-07-15T17:39:21.130Z,6.93
2018-07-15T17:41:49.643Z,4.77
2018-07-15T17:44:18.151Z,4.60
2018-07-15T17:46:46.615Z,4.37
2018-07-15T17:49:15.084Z,4.23
2018-07-15T17:51:43.552Z,4.13
2018-07-15T17:54:12.412Z,3.53
2018-07-15T17:56:40.947Z,3.40
2018-07-15T17:59:09.800Z,3.33
2018-07-15T18:01:38.334Z,3.27
2018-07-15T18:04:06.808Z,4.10
2018-07-15T18:06:35.276Z,3.20
2018-07-15T18:09:04.932Z,3.47
2018-07-15T18:11:33.458Z,3.00
2018-07-15T18:14:02.005Z,4.00
2018-07-15T18:16:30.624Z,2.80
2018-07-15T18:18:59.079Z,3.53
2018-07-15T18:21:27.688Z,3.60
2018-07-15T18:23:56.180Z,3.50
2018-07-15T18:26:25.012Z,3.47
2018-07-15T18:28:53.616Z,3.43
2018-07-15T18:31:22.138Z,3.20
2018-07-15T18:33:50.659Z,3.13
2018-07-15T18:36:19.140Z,3.00
2018-07-15T18:38:47.606Z,3.23
2018-07-15T18:41:16.511Z,3.10
2018-07-15T18:43:45.047Z,3.17
2018-07-15T18:46:13.630Z,2.97
2018-07-15T18:48:42.104Z,3.10
2018-07-15T18:51:10.587Z,2.90
2018-07-15T18:53:39.387Z,3.47
2018-07-15T18:56:07.861Z,2.90
2018-07-15T18:58:36.315Z,3.10
2018-07-15T19:01:04.825Z,3.00
2018-07-15T19:03:33.380Z,3.23
2018-07-15T19:06:02.726Z,3.33
2018-07-15T19:08:31.627Z,3.77
2018-07-15T19:11:01.026Z,2.97
2018-07-15T19:13:30.255Z,4.17
2018-07-15T19:15:59.269Z,3.23
2018-07-15T19:18:28.944Z,3.53
2018-07-15T19:20:58.254Z,3.30
2018-07-15T19:23:26.727Z,3.60
2018-07-15T19:25:55.813Z,3.63
2018-07-15T19:28:24.357Z,2.73
2018-07-15T19:30:52.851Z,2.97
2018-07-15T19:33:21.424Z,3.60
2018-07-15T19:35:50.583Z,3.20
2018-07-15T19:38:19.546Z,3.07
2018-07-15T19:40:48.597Z,3.80
2018-07-15T19:43:17.837Z,3.37
2018-07-15T19:45:47.060Z,3.73
2018-07-15T19:48:15.512Z,4.47
2018-07-15T19:50:44.017Z,3.93
2018-07-15T19:53:12.511Z,4.30
2018-07-15T19:55:40.957Z,3.70
2018-07-15T19:58:09.543Z,3.73
2018-07-15T20:00:38.212Z,4.10
2018-07-15T20:03:06.669Z,4.20
2018-07-15T20:05:35.124Z,4.23
2018-07-15T20:08:03.584Z,5.10
2018-07-15T20:10:32.024Z,4.50
2018-07-15T20:13:00.520Z,4.30
2018-07-15T20:15:29.005Z,4.00
2018-07-15T20:17:58.077Z,4.30
2018-07-15T20:20:26.635Z,4.40
2018-07-15T20:22:55.175Z,3.80
2018-07-15T20:25:23.670Z,4.60
2018-07-15T20:27:52.116Z,4.57
2018-07-15T20:30:20.585Z,4.07
2018-07-15T20:32:49.064Z,5.03
2018-07-15T20:35:17.647Z,5.53
2018-07-15T20:37:46.172Z,5.83
2018-07-15T20:40:14.667Z,5.10
2018-07-15T20:42:43.120Z,6.30
2018-07-15T20:45:11.945Z,9.00
2018-07-15T20:47:40.435Z,13.60
2018-07-15T20:50:08.949Z,15.23
2018-07-15T20:52:37.889Z,14.13
2018-07-15T20:55:06.423Z,16.43
2018-07-15T20:57:35.061Z,11.87
2018-07-15T21:00:03.981Z,10.00
2018-07-15T21:02:32.508Z,8.63
2018-07-15T21:05:01.068Z,7.83
2018-07-15T21:07:29.520Z,7.70
2018-07-15T21:09:57.992Z,7.30
2018-07-15T21:12:26.462Z,7.47
2018-07-15T21:14:55.609Z,7.20
2018-07-15T21:17:24.861Z,7.07
2018-07-15T21:19:53.531Z,6.10
2018-07-15T21:22:22.014Z,5.30
2018-07-15T21:24:50.488Z,5.67
2018-07-15T21:27:19.129Z,5.43
2018-07-15T21:29:47.631Z,4.57
2018-07-15T21:32:16.196Z,4.63
2018-07-15T21:34:44.871Z,5.00
2018-07-15T21:37:13.671Z,4.87
2018-07-15T21:39:42.265Z,5.50
2018-07-15T21:42:11.420Z,4.63
2018-07-15T21:44:40.173Z,5.13
2018-07-15T21:47:09.009Z,4.53
2018-07-15T21:49:37.700Z,4.87
2018-07-15T21:52:06.404Z,4.70
2018-07-15T21:54:35.112Z,4.93
2018-07-15T21:57:03.762Z,4.70
2018-07-15T21:59:32.271Z,4.33
2018-07-15T22:02:00.755Z,4.50
2018-07-15T22:04:29.339Z,4.10
2018-07-15T22:07:03.166Z,4.80
2018-07-15T22:09:50.141Z,4.40
2018-07-15T22:12:18.618Z,4.60
2018-07-15T22:14:47.492Z,4.00
2018-07-15T22:17:16.000Z,5.00
2018-07-15T22:19:44.904Z,4.30
2018-07-15T22:22:13.712Z,4.53
2018-07-15T22:24:42.984Z,4.17
2018-07-15T22:27:12.223Z,4.50
2018-07-15T22:29:41.764Z,4.43
2018-07-15T22:32:11.021Z,4.70
2018-07-15T22:34:40.164Z,4.60
2018-07-15T22:37:09.132Z,5.50
2018-07-15T22:39:37.627Z,5.50
2018-07-15T22:42:06.135Z,5.27
2018-07-15T22:44:34.903Z,4.23
2018-07-15T22:47:03.389Z,4.87
2018-07-15T22:49:31.914Z,5.13
2018-07-15T22:52:00.391Z,4.87
2018-07-15T22:54:29.597Z,5.23
2018-07-15T22:56:58.858Z,4.97
2018-07-15T22:59:28.006Z,4.83
2018-07-15T23:01:57.284Z,4.63
2018-07-15T23:04:32.551Z,5.50
2018-07-15T23:07:01.006Z,5.03
2018-07-15T23:09:29.548Z,5.60
2018-07-15T23:11:58.003Z,4.93
2018-07-15T23:14:26.647Z,4.63
2018-07-15T23:16:55.104Z,5.80
2018-07-15T23:19:23.729Z,5.37
2018-07-15T23:21:52.285Z,6.00
2018-07-15T23:24:28.314Z,5.60
2018-07-15T23:26:56.825Z,6.00
2018-07-15T23:29:25.457Z,6.20
2018-07-15T23:31:53.903Z,5.97
2018-07-15T23:34:22.469Z,7.07
2018-07-15T23:36:50.920Z,6.77
2018-07-15T23:39:19.444Z,6.73
2018-07-15T23:41:47.972Z,6.60
2018-07-15T23:44:16.637Z,6.47
2018-07-15T23:46:45.159Z,6.50
2018-07-15T23:49:13.750Z,7.03
2018-07-15T23:51:42.243Z,7.47
2018-07-15T23:54:10.835Z,7.60
2018-07-15T23:56:39.329Z,8.13
2018-07-15T23:59:07.779Z,8.93
